Terminal Aerodrome Forecast
Issued by NWS

Home | Current Version | Previous Version | Text Only | Print | Product List | Glossary On
Versions: 1 2 3 4 5 6 7 8 9 10 11 12 13 14 15 16
000
FTUS43 KGRR 292008 AAA
TAFLAN
TAF AMD
KLAN 292008Z 2920/3018 05014G22KT P6SM VCSH SCT025 BKN050
     FM300400 04004KT 5SM -SHRA BR OVC025
     FM301600 07007KT P6SM VCTS BKN035CB=

USA.gov is the U.S. government's official web portal to all federal, state and local government web resources and services.